createdAt,value
2018-11-22T12:17:38.456Z,83.36
2018-11-22T12:20:08.383Z,83.56
2018-11-22T12:22:37.292Z,82.40
2018-11-22T12:25:07.675Z,82.43
2018-11-22T12:27:36.272Z,82.77
2018-11-22T12:30:05.761Z,82.12
2018-11-22T12:32:35.538Z,81.70
2018-11-22T12:36:12.375Z,82.77
2018-11-22T12:38:40.998Z,82.74
2018-11-22T12:41:09.759Z,83.04
2018-11-22T12:43:38.571Z,83.66
2018-11-22T12:46:07.245Z,83.06
2018-11-22T12:48:36.215Z,83.41
2018-11-22T12:51:04.872Z,83.03
2018-11-22T12:53:33.592Z,83.44
2018-11-22T12:56:02.223Z,83.25
2018-11-22T12:58:30.867Z,83.15
2018-11-22T13:01:00.200Z,82.44
2018-11-22T13:03:28.926Z,82.45
2018-11-22T13:05:58.247Z,82.79
2018-11-22T13:08:26.863Z,82.42
2018-11-22T13:10:56.194Z,82.75
2018-11-22T13:13:24.831Z,83.57
2018-11-22T13:15:53.382Z,82.87
2018-11-22T13:18:21.959Z,83.40
2018-11-22T13:20:50.560Z,83.32
2018-11-22T13:23:20.155Z,83.34
2018-11-22T13:25:48.761Z,82.53
2018-11-22T13:28:17.457Z,83.13
2018-11-22T13:30:46.133Z,82.96
2018-11-22T13:33:14.684Z,83.07
2018-11-22T13:35:43.343Z,83.34
2018-11-22T13:38:11.908Z,83.42
2018-11-22T13:40:40.469Z,83.01
2018-11-22T13:43:09.036Z,83.46
2018-11-22T13:45:38.232Z,83.85
2018-11-22T13:48:06.982Z,84.39
2018-11-22T13:50:41.718Z,84.44
2018-11-22T13:53:06.092Z,84.58
2018-11-22T13:55:34.686Z,85.01
2018-11-22T13:58:03.257Z,84.98
2018-11-22T14:00:33.057Z,84.58
2018-11-22T14:03:04.167Z,84.43
2018-11-22T14:05:32.801Z,84.70
2018-11-22T14:08:01.660Z,84.68
2018-11-22T14:10:30.355Z,85.32
2018-11-22T14:12:58.907Z,84.94
2018-11-22T14:15:28.832Z,85.18
2018-11-22T14:17:58.865Z,84.72
2018-11-22T14:20:30.827Z,85.25
2018-11-22T14:22:59.461Z,85.02
2018-11-22T14:25:29.336Z,85.38
2018-11-22T14:27:57.916Z,84.47
2018-11-22T14:30:29.062Z,85.30
2018-11-22T14:32:57.695Z,84.75
2018-11-22T14:35:27.439Z,84.70
2018-11-22T14:37:56.747Z,85.59
2018-11-22T14:40:26.847Z,84.79
2018-11-22T14:42:55.839Z,85.22
2018-11-22T14:45:25.161Z,85.06
2018-11-22T14:47:54.814Z,85.01
2018-11-22T14:51:36.244Z,85.74
2018-11-22T14:54:05.093Z,85.18
2018-11-22T14:56:34.029Z,85.33
2018-11-22T14:59:02.551Z,86.19
2018-11-22T15:01:31.127Z,86.38
2018-11-22T15:03:59.721Z,85.44
2018-11-22T15:06:28.310Z,85.70
2018-11-22T15:08:56.878Z,85.83
2018-11-22T15:11:25.792Z,85.60
2018-11-22T15:13:54.465Z,85.49
2018-11-22T15:16:23.147Z,85.87
2018-11-22T15:18:51.727Z,85.37
2018-11-22T15:21:20.434Z,85.44
2018-11-22T15:23:49.097Z,85.93
2018-11-22T15:26:17.667Z,86.02
2018-11-22T15:28:46.287Z,85.97
2018-11-22T15:31:14.876Z,86.33
2018-11-22T15:33:43.451Z,86.13
2018-11-22T15:36:12.019Z,86.21
2018-11-22T15:38:40.601Z,85.76
2018-11-22T15:41:09.146Z,85.56
2018-11-22T15:43:37.746Z,85.54
2018-11-22T15:46:06.647Z,85.96
2018-11-22T15:48:35.200Z,86.03
2018-11-22T15:51:03.777Z,86.02
2018-11-22T15:53:32.863Z,86.62
2018-11-22T15:56:01.920Z,86.46
2018-11-22T15:58:30.513Z,86.22
2018-11-22T16:00:59.067Z,86.19
2018-11-22T16:03:27.640Z,86.02
2018-11-22T16:05:56.265Z,85.97
2018-11-22T16:08:24.983Z,86.69
2018-11-22T16:10:53.709Z,86.19
2018-11-22T16:13:22.285Z,87.19
2018-11-22T16:15:52.566Z,86.17
2018-11-22T16:18:21.137Z,86.83
2018-11-22T16:20:49.769Z,86.91
2018-11-22T16:23:18.553Z,87.24
2018-11-22T16:25:47.131Z,87.26
2018-11-22T16:28:15.709Z,87.20
2018-11-22T16:30:44.726Z,87.35
2018-11-22T16:33:13.365Z,86.68
2018-11-22T16:35:42.339Z,86.48
2018-11-22T16:38:11.401Z,86.92
2018-11-22T16:40:40.047Z,86.64
2018-11-22T16:43:08.462Z,86.69
2018-11-22T16:45:38.854Z,87.33
2018-11-22T16:48:09.701Z,87.24
2018-11-22T16:50:39.403Z,87.00
2018-11-22T16:53:08.028Z,87.20
2018-11-22T16:55:36.767Z,87.31
2018-11-22T16:58:05.924Z,86.86
2018-11-22T17:00:38.775Z,86.61
2018-11-22T17:03:10.359Z,86.79
2018-11-22T17:05:39.202Z,87.41
2018-11-22T17:08:08.603Z,87.10
2018-11-22T17:10:37.853Z,87.68
2018-11-22T17:13:06.843Z,87.37
2018-11-22T17:15:37.060Z,87.38
2018-11-22T17:18:06.669Z,87.82
2018-11-22T17:20:35.545Z,87.47
2018-11-22T17:23:05.042Z,87.96
2018-11-22T17:25:34.856Z,86.98
2018-11-22T17:28:05.722Z,87.94
2018-11-22T17:30:38.890Z,88.21
2018-11-22T17:33:07.454Z,87.71
2018-11-22T17:35:36.434Z,87.28
2018-11-22T17:38:06.484Z,87.03
2018-11-22T17:40:43.052Z,87.88
2018-11-22T17:43:11.586Z,87.43
2018-11-22T17:45:42.411Z,87.30
2018-11-22T17:48:11.284Z,87.57
2018-11-22T17:50:41.510Z,87.96
2018-11-22T17:53:11.160Z,87.40
2018-11-22T17:55:41.439Z,88.08
2018-11-22T17:58:10.139Z,87.70
2018-11-22T18:00:40.378Z,87.28
2018-11-22T18:03:09.099Z,87.14
2018-11-22T18:05:37.886Z,87.30
2018-11-22T18:08:06.476Z,87.58
2018-11-22T18:10:38.026Z,87.43
2018-11-22T18:13:06.866Z,87.77
2018-11-22T18:16:07.374Z,87.38
2018-11-22T18:18:35.912Z,87.71
2018-11-22T18:21:04.815Z,88.62
2018-11-22T18:23:33.637Z,88.53
2018-11-22T18:26:02.127Z,87.74
2018-11-22T18:28:30.703Z,87.03
2018-11-22T18:30:59.231Z,88.10
2018-11-22T18:33:29.177Z,87.55
2018-11-22T18:35:57.659Z,87.93
2018-11-22T18:38:26.187Z,87.35
2018-11-22T18:40:54.722Z,86.73
2018-11-22T18:43:23.318Z,87.02
2018-11-22T18:45:52.539Z,87.34
2018-11-22T18:48:21.666Z,87.30
2018-11-22T18:50:50.471Z,87.45
2018-11-22T18:53:19.242Z,87.55
2018-11-22T18:55:47.746Z,87.80
2018-11-22T18:58:16.411Z,87.41
2018-11-22T19:00:46.075Z,88.17
2018-11-22T19:03:16.347Z,88.24
2018-11-22T19:05:45.810Z,88.43
2018-11-22T19:08:14.308Z,87.48
2018-11-22T19:10:43.681Z,87.90
2018-11-22T19:13:12.799Z,88.19
2018-11-22T19:15:42.957Z,87.73
2018-11-22T19:18:13.054Z,88.02
2018-11-22T19:20:43.240Z,87.93
2018-11-22T19:23:12.760Z,87.65
2018-11-22T19:25:41.456Z,87.67
2018-11-22T19:28:10.294Z,87.49
2018-11-22T19:30:42.632Z,88.44
2018-11-22T19:33:12.963Z,87.61
2018-11-22T19:35:43.128Z,87.61
2018-11-22T19:38:12.087Z,87.99
2018-11-22T19:40:41.523Z,87.67
2018-11-22T19:43:10.778Z,87.79
2018-11-22T19:45:41.918Z,87.73
2018-11-22T19:48:11.040Z,87.15
2018-11-22T19:50:40.336Z,87.63
2018-11-22T19:53:11.252Z,87.50
2018-11-22T19:55:40.410Z,87.99
2018-11-22T19:58:11.174Z,87.85
2018-11-22T20:00:39.734Z,87.93
2018-11-22T20:03:09.137Z,88.25
2018-11-22T20:05:39.242Z,87.95
2018-11-22T20:08:09.520Z,87.18
2018-11-22T20:10:39.525Z,87.67
2018-11-22T20:13:08.071Z,87.08
2018-11-22T20:15:36.604Z,87.43
2018-11-22T20:18:06.763Z,87.69
2018-11-22T20:20:35.371Z,87.01
2018-11-22T20:23:03.976Z,87.78
2018-11-22T20:25:32.528Z,87.93
2018-11-22T20:28:01.660Z,87.67
2018-11-22T20:30:32.457Z,87.23
2018-11-22T20:33:01.366Z,87.40
2018-11-22T20:35:30.758Z,87.58
2018-11-22T20:37:59.383Z,86.93
2018-11-22T20:40:28.437Z,87.42
2018-11-22T20:42:57.331Z,87.32
2018-11-22T20:45:26.974Z,87.41
2018-11-22T20:47:57.870Z,87.84
2018-11-22T20:50:27.390Z,87.78
2018-11-22T20:52:56.502Z,87.39
2018-11-22T20:55:27.305Z,87.68
2018-11-22T20:57:57.195Z,87.29
2018-11-22T21:00:27.077Z,87.50
2018-11-22T21:02:55.648Z,87.12
2018-11-22T21:05:24.819Z,87.31
2018-11-22T21:07:53.360Z,87.46
2018-11-22T21:10:23.178Z,87.20
2018-11-22T21:12:51.890Z,87.42
2018-11-22T21:15:22.855Z,87.37
2018-11-22T21:17:52.809Z,87.65
2018-11-22T21:20:23.140Z,87.97
2018-11-22T21:22:51.620Z,87.94
2018-11-22T21:25:20.982Z,86.96
2018-11-22T21:27:49.645Z,87.67
2018-11-22T21:30:21.218Z,88.16
2018-11-22T21:32:50.476Z,88.25
2018-11-22T21:35:19.478Z,87.49
2018-11-22T21:37:48.586Z,88.31
2018-11-22T21:40:17.873Z,87.85
2018-11-22T21:42:46.476Z,87.70
2018-11-22T21:45:16.681Z,87.47
2018-11-22T21:47:45.326Z,87.50
2018-11-22T21:50:15.019Z,87.89
2018-11-22T21:52:43.706Z,88.18
2018-11-22T21:55:18.951Z,88.09
2018-11-22T21:57:47.983Z,87.54
2018-11-22T22:00:39.232Z,87.65
2018-11-22T22:03:09.289Z,87.78
2018-11-22T22:05:38.204Z,87.15
2018-11-22T22:08:07.113Z,87.13
2018-11-22T22:10:35.871Z,87.27
2018-11-22T22:13:04.744Z,87.81
2018-11-22T22:15:34.384Z,87.42
2018-11-22T22:18:03.066Z,87.73
2018-11-22T22:20:32.994Z,87.40
2018-11-22T22:23:01.522Z,87.71
2018-11-22T22:25:30.621Z,87.68
2018-11-22T22:27:59.511Z,87.25
2018-11-22T22:30:29.345Z,87.61
2018-11-22T22:32:59.302Z,87.95
2018-11-22T22:35:27.827Z,87.36
2018-11-22T22:37:56.588Z,87.25
2018-11-22T22:40:26.573Z,87.84
2018-11-22T22:42:56.144Z,87.75
2018-11-22T22:45:25.712Z,87.17
2018-11-22T22:47:54.603Z,86.62
2018-11-22T22:50:24.469Z,86.30
2018-11-22T22:52:54.398Z,86.97
2018-11-22T22:55:22.960Z,87.31
2018-11-22T22:57:51.507Z,87.44
2018-11-22T23:00:27.231Z,87.65
2018-11-22T23:03:00.333Z,86.77
2018-11-22T23:05:29.774Z,86.79
2018-11-22T23:07:58.349Z,86.52
2018-11-22T23:10:27.193Z,86.80
2018-11-22T23:12:56.654Z,86.82
2018-11-22T23:15:26.282Z,86.24
2018-11-22T23:17:54.910Z,87.00
2018-11-22T23:20:25.818Z,85.95
2018-11-22T23:22:54.661Z,85.89
2018-11-22T23:25:24.248Z,86.28
2018-11-22T23:27:52.776Z,87.37
2018-11-22T23:30:27.186Z,86.60
2018-11-22T23:32:57.373Z,86.59
2018-11-22T23:35:26.071Z,86.06
2018-11-22T23:37:54.927Z,86.72
2018-11-22T23:40:24.714Z,86.71
2018-11-22T23:42:53.306Z,86.87
2018-11-22T23:45:23.083Z,86.23
2018-11-22T23:47:51.647Z,86.75
2018-11-22T23:50:22.564Z,86.67
2018-11-22T23:52:52.487Z,86.98
2018-11-22T23:55:22.302Z,87.07
2018-11-22T23:57:50.838Z,86.88
